North Miami Beach, Florida
Current Conditions -  °F | °C
As of 2:53 AM on Friday 31 Oct 2014 (Local Time) from KHWO Reporting Station
Clear Clear  
Wind Chill: 73°   Ceiling: Unl
Heat Index: 73°   Visibility: 10mi
Dew Point: 69°   Wind: 0mph
Humidity: 87%   Direction: NA
Pressure: 29.86"   Gusts: NA
Location:  25.9339°N, 80.1467°W
Report Text: KHWO 310653Z AUTO 00000KT 10SM CLR 23/21 A2986 RMK AO2 SLP110 T02280206
Loading
Personal Weather Stations






























Interactive Weather Map
Tropical Storm Tracking
New forecast layout! Learn more

10-Day Weather Forecast

Advertisements
Track Severe Weather on mobile